createdAt,value
2022-12-03T00:01:02.672Z,19
2022-12-03T00:02:02.090Z,19.1
2022-12-03T00:03:01.481Z,19
2022-12-03T00:04:01.668Z,19
2022-12-03T00:05:01.276Z,19.1
2022-12-03T00:06:00.986Z,19.1
2022-12-03T00:07:01.133Z,19.2
2022-12-03T00:08:01.551Z,19.3
2022-12-03T00:09:01.875Z,19.4
2022-12-03T00:10:02.216Z,19.5
2022-12-03T00:11:01.133Z,19.5
2022-12-03T00:12:01.262Z,19.5
2022-12-03T00:13:01.823Z,19.5
2022-12-03T00:14:01.437Z,19.6
2022-12-03T00:15:02.171Z,19.6
2022-12-03T00:16:02.520Z,19.5
2022-12-03T00:17:01.069Z,19.7
2022-12-03T00:18:01.182Z,19.8
2022-12-03T00:19:01.053Z,19.6
2022-12-03T00:20:01.107Z,19.8
2022-12-03T00:21:01.088Z,19.5
2022-12-03T00:22:01.055Z,19.6
2022-12-03T00:23:01.102Z,19.6
2022-12-03T00:24:01.124Z,19.6
2022-12-03T00:25:01.122Z,19.6
2022-12-03T00:26:01.128Z,19.8
2022-12-03T00:27:01.527Z,19.9
2022-12-03T00:28:01.141Z,19.8
2022-12-03T00:29:01.138Z,19.6
2022-12-03T00:30:01.148Z,19.5
2022-12-03T00:31:01.122Z,19.4
2022-12-03T00:32:01.064Z,19.5
2022-12-03T00:33:01.073Z,19.6
2022-12-03T00:34:01.080Z,19.6
2022-12-03T00:35:04.662Z,19.6
2022-12-03T00:36:01.478Z,19.5
2022-12-03T00:37:01.094Z,19.5
2022-12-03T00:38:01.106Z,19.6
2022-12-03T00:39:01.137Z,19.7
2022-12-03T00:40:01.128Z,19.6
2022-12-03T00:41:01.104Z,19.5
2022-12-03T00:42:01.125Z,19.5
2022-12-03T00:43:01.142Z,19.5
2022-12-03T00:44:01.432Z,19
2022-12-03T00:45:01.135Z,19
2022-12-03T00:46:01.264Z,19
2022-12-03T00:47:01.425Z,19
2022-12-03T00:48:01.050Z,18.9
2022-12-03T00:49:01.070Z,19
2022-12-03T00:50:01.074Z,19
2022-12-03T00:51:00.758Z,18.9
2022-12-03T00:52:00.480Z,18.8
2022-12-03T00:53:00.047Z,18.9
2022-12-03T00:53:59.602Z,18.9
2022-12-03T00:55:02.109Z,19
2022-12-03T00:56:02.645Z,18.8
2022-12-03T00:57:01.408Z,18.8
2022-12-03T00:58:02.498Z,18.8
2022-12-03T00:59:02.658Z,18.8
2022-12-03T01:00:02.572Z,18.7
2022-12-03T01:01:06.717Z,18.8
2022-12-03T01:02:01.242Z,18.8
2022-12-03T01:03:03.935Z,18.9
2022-12-03T01:04:02.065Z,18.8
2022-12-03T01:05:01.142Z,18.5
2022-12-03T01:06:10.659Z,18.5
2022-12-03T01:07:01.469Z,18.6
2022-12-03T01:08:01.194Z,18.6
2022-12-03T01:09:01.902Z,18.4
2022-12-03T01:10:01.111Z,18.3
2022-12-03T01:11:14.777Z,18.3
2022-12-03T01:12:01.066Z,18.3
2022-12-03T01:13:01.110Z,18.3
2022-12-03T01:14:01.421Z,18.3
2022-12-03T01:15:01.502Z,18.3
2022-12-03T01:16:01.362Z,18.2
2022-12-03T01:17:01.147Z,18
2022-12-03T01:18:01.142Z,17.8
2022-12-03T01:19:01.142Z,17.8
2022-12-03T01:20:01.142Z,17.7
2022-12-03T01:21:01.162Z,17.8
2022-12-03T01:22:01.346Z,17.6
2022-12-03T01:23:01.355Z,17.7
2022-12-03T01:24:01.060Z,17.7
2022-12-03T01:25:01.096Z,17.8
2022-12-03T01:26:01.128Z,17.8
2022-12-03T01:27:01.110Z,17.9
2022-12-03T01:28:01.093Z,17.9
2022-12-03T01:29:01.116Z,17.9
2022-12-03T01:30:01.119Z,17.8
2022-12-03T01:31:01.179Z,17.8
2022-12-03T01:32:01.516Z,17.8
2022-12-03T01:33:01.516Z,17.9
2022-12-03T01:34:01.062Z,17.9
2022-12-03T01:35:01.145Z,18
2022-12-03T01:36:01.153Z,18.2
2022-12-03T01:37:01.055Z,18.3
2022-12-03T01:38:01.190Z,18.3
2022-12-03T01:39:01.060Z,18.3
2022-12-03T01:40:01.464Z,18.3
2022-12-03T01:41:01.151Z,18.5
2022-12-03T01:42:01.107Z,18.7
2022-12-03T01:43:01.096Z,19
2022-12-03T01:44:01.091Z,19.2
2022-12-03T01:45:01.140Z,19.3
2022-12-03T01:46:01.108Z,19.3
2022-12-03T01:47:01.485Z,19.6
2022-12-03T01:48:01.166Z,19.9
2022-12-03T01:49:01.129Z,20.1
2022-12-03T01:50:01.054Z,20.3
2022-12-03T01:51:01.037Z,20.5
2022-12-03T01:52:01.256Z,20.7
2022-12-03T01:53:01.758Z,20.9
2022-12-03T01:54:01.791Z,21.1
2022-12-03T01:55:01.471Z,21.6
2022-12-03T01:56:01.190Z,21.9
2022-12-03T01:57:00.920Z,22.2
2022-12-03T01:58:00.674Z,22.5
2022-12-03T01:59:00.370Z,22.9
2022-12-03T01:59:59.971Z,22.9
2022-12-03T02:00:59.579Z,23.1
2022-12-03T02:02:01.864Z,23.5
2022-12-03T02:03:01.119Z,23.9
2022-12-03T02:04:01.116Z,24
2022-12-03T02:05:01.437Z,24.1
2022-12-03T02:06:01.512Z,24.3
2022-12-03T02:07:01.143Z,24
2022-12-03T02:08:01.244Z,24.2
2022-12-03T02:09:01.058Z,24.3
2022-12-03T02:10:01.052Z,24.2
2022-12-03T02:11:01.202Z,24.2
2022-12-03T02:12:01.485Z,24.1
2022-12-03T02:13:02.620Z,24.3
2022-12-03T02:14:01.364Z,24.3
2022-12-03T02:15:01.098Z,24.5
2022-12-03T02:16:01.186Z,24.5
2022-12-03T02:17:01.103Z,24.6
2022-12-03T02:18:01.052Z,24.6
2022-12-03T02:19:01.120Z,24.6
2022-12-03T02:20:01.132Z,24.9
2022-12-03T02:21:01.122Z,24.9
2022-12-03T02:22:01.530Z,25
2022-12-03T02:23:01.149Z,24.9
2022-12-03T02:24:01.052Z,24.9
2022-12-03T02:25:01.297Z,25
2022-12-03T02:26:01.065Z,25.1
2022-12-03T02:27:01.084Z,25.2
2022-12-03T02:28:01.086Z,25.4
2022-12-03T02:29:01.740Z,25.4
2022-12-03T02:30:01.221Z,25.1
2022-12-03T02:31:01.365Z,25
2022-12-03T02:32:01.787Z,24.8
2022-12-03T02:33:02.372Z,25.1
2022-12-03T02:34:01.916Z,25.1
2022-12-03T02:35:01.127Z,25.3
2022-12-03T02:36:03.762Z,25.7
2022-12-03T02:37:05.063Z,25.9
2022-12-03T02:38:01.133Z,26.1
2022-12-03T02:39:01.430Z,26.4
2022-12-03T02:40:01.517Z,26.8
2022-12-03T02:41:01.262Z,27.1
2022-12-03T02:42:08.407Z,27.5
2022-12-03T02:43:01.156Z,27.9
2022-12-03T02:44:01.034Z,28
2022-12-03T02:45:05.148Z,28.4
2022-12-03T02:46:01.788Z,28.5
2022-12-03T02:47:10.958Z,28.6
2022-12-03T02:48:01.481Z,28.9
2022-12-03T02:49:00.669Z,29.2
2022-12-03T02:50:00.280Z,29.7
2022-12-03T02:50:59.868Z,29.7
2022-12-03T02:52:14.158Z,29.9
2022-12-03T02:53:01.797Z,30.4
2022-12-03T02:54:01.683Z,31
2022-12-03T02:55:01.322Z,31.2
2022-12-03T02:56:01.132Z,31.8
2022-12-03T02:57:16.631Z,32.1
2022-12-03T02:58:02.493Z,32.5
2022-12-03T02:59:01.250Z,32.6
2022-12-03T03:00:01.123Z,32.8
2022-12-03T03:01:01.882Z,33
2022-12-03T03:02:01.443Z,33.7
2022-12-03T03:03:01.606Z,34.5
2022-12-03T03:04:01.129Z,35.2
2022-12-03T03:05:01.399Z,35.5
2022-12-03T03:06:01.486Z,36.3
2022-12-03T03:07:01.488Z,36.6
2022-12-03T03:08:01.242Z,37.1
2022-12-03T03:09:01.917Z,37.4
2022-12-03T03:10:01.116Z,37.5
2022-12-03T03:11:01.128Z,37.8
2022-12-03T03:12:01.155Z,38.4
2022-12-03T03:13:01.452Z,39
2022-12-03T03:14:02.113Z,39.1
2022-12-03T03:15:04.435Z,39.2
2022-12-03T03:16:01.115Z,39.5
2022-12-03T03:17:01.216Z,40.5
2022-12-03T03:18:01.077Z,42.7
2022-12-03T03:19:00.874Z,45.3
2022-12-03T03:20:01.098Z,47.3
2022-12-03T03:21:01.085Z,48.7
2022-12-03T03:22:01.113Z,49.7
2022-12-03T03:23:01.445Z,51.1
2022-12-03T03:24:01.526Z,53.1
2022-12-03T03:25:02.246Z,56.3
2022-12-03T03:26:01.138Z,59.2
2022-12-03T03:27:01.140Z,62.6
2022-12-03T03:28:01.135Z,64.5
2022-12-03T03:29:01.135Z,66
2022-12-03T03:30:01.141Z,65.9
2022-12-03T03:31:01.201Z,65.5
2022-12-03T03:32:01.532Z,65.6
2022-12-03T03:33:01.062Z,66.3
2022-12-03T03:34:01.705Z,66.4
2022-12-03T03:35:01.053Z,67.2
2022-12-03T03:36:01.072Z,68.1
2022-12-03T03:37:01.210Z,70.5
2022-12-03T03:38:01.096Z,71.9
2022-12-03T03:39:01.103Z,72
2022-12-03T03:40:01.105Z,71.6
2022-12-03T03:41:01.119Z,70.7
2022-12-03T03:42:01.066Z,69.9
2022-12-03T03:43:01.140Z,69.1
2022-12-03T03:44:01.101Z,68.5
2022-12-03T03:45:02.040Z,68.1
2022-12-03T03:46:01.521Z,68.6
2022-12-03T03:47:01.460Z,68.1
2022-12-03T03:48:01.056Z,67.9
2022-12-03T03:49:01.064Z,67.2
2022-12-03T03:50:01.074Z,67.2
2022-12-03T03:51:01.068Z,67.1
2022-12-03T03:52:01.085Z,66.5
2022-12-03T03:53:01.123Z,66.5
2022-12-03T03:54:01.194Z,67.2
2022-12-03T03:55:01.428Z,67.1
2022-12-03T03:56:01.214Z,66.4
2022-12-03T03:57:01.123Z,65.7
2022-12-03T03:58:01.136Z,65.5
2022-12-03T03:59:00.798Z,65.4
2022-12-03T04:00:00.408Z,65
2022-12-03T04:01:00.402Z,64.1
2022-12-03T04:02:00.174Z,64
2022-12-03T04:03:00.027Z,63.5
2022-12-03T04:03:59.876Z,63
2022-12-03T04:04:59.535Z,62.5
2022-12-03T04:06:01.727Z,62.6
2022-12-03T04:07:01.085Z,62.1
2022-12-03T04:08:01.272Z,61.3
2022-12-03T04:09:01.200Z,60.9
2022-12-03T04:10:01.233Z,59.9
2022-12-03T04:11:01.106Z,59.2
2022-12-03T04:12:01.126Z,58.7
2022-12-03T04:13:04.077Z,58.7
2022-12-03T04:14:01.430Z,58.8
2022-12-03T04:15:01.050Z,58.9
2022-12-03T04:16:01.163Z,59.2
2022-12-03T04:17:01.204Z,59.3
2022-12-03T04:18:06.056Z,59.4
2022-12-03T04:19:01.948Z,59.5
2022-12-03T04:20:01.057Z,59.6
2022-12-03T04:21:01.099Z,59.8
2022-12-03T04:22:01.072Z,59.6
2022-12-03T04:23:09.846Z,59.6
2022-12-03T04:24:01.765Z,59.9
2022-12-03T04:25:01.493Z,60.4
2022-12-03T04:26:01.084Z,60.9
2022-12-03T04:27:01.500Z,60.8
2022-12-03T04:28:12.623Z,60.3
2022-12-03T04:29:01.156Z,59.9
2022-12-03T04:30:01.826Z,60
2022-12-03T04:31:01.157Z,60.2
2022-12-03T04:32:00.526Z,59.7
2022-12-03T04:33:14.724Z,59.2
2022-12-03T04:34:01.006Z,59.3
2022-12-03T04:35:01.482Z,59.8
2022-12-03T04:36:01.359Z,59.9
2022-12-03T04:37:01.050Z,59.4
2022-12-03T04:38:01.076Z,58.9
2022-12-03T04:39:01.067Z,58.7
2022-12-03T04:40:01.087Z,58.6
2022-12-03T04:41:01.100Z,58.6
2022-12-03T04:42:01.276Z,58.8
2022-12-03T04:43:01.103Z,58.8
2022-12-03T04:44:01.496Z,58.8
2022-12-03T04:45:00.777Z,58.8
2022-12-03T04:46:00.463Z,58.7
2022-12-03T04:47:00.086Z,58.9
2022-12-03T04:47:59.675Z,58.9
2022-12-03T04:49:01.251Z,59.3
2022-12-03T04:50:01.152Z,59.3
2022-12-03T04:51:01.175Z,59.5
2022-12-03T04:52:01.665Z,59.7
2022-12-03T04:53:01.291Z,60
2022-12-03T04:54:01.060Z,59.7
2022-12-03T04:55:01.059Z,59.7
2022-12-03T04:56:01.339Z,59.8
2022-12-03T04:57:01.048Z,59.9
2022-12-03T04:58:01.043Z,59.8
2022-12-03T04:59:01.095Z,60.1
2022-12-03T05:00:01.110Z,61.2
2022-12-03T05:01:01.325Z,61.6
2022-12-03T05:02:01.982Z,61.5
2022-12-03T05:03:01.561Z,62
2022-12-03T05:04:01.140Z,62.2
2022-12-03T05:05:01.772Z,62.9
2022-12-03T05:06:01.426Z,63.3
2022-12-03T05:07:01.161Z,63.4
2022-12-03T05:08:01.211Z,63.7
2022-12-03T05:09:01.150Z,64.1
2022-12-03T05:10:01.075Z,64.3
2022-12-03T05:11:01.071Z,64.4
2022-12-03T05:12:01.082Z,64.5
2022-12-03T05:13:01.064Z,64
2022-12-03T05:14:01.462Z,63.7
2022-12-03T05:15:01.089Z,64
2022-12-03T05:16:01.087Z,64.2
2022-12-03T05:17:01.139Z,64
2022-12-03T05:18:01.389Z,63.6
2022-12-03T05:19:01.128Z,63.8
2022-12-03T05:20:01.418Z,63.9
2022-12-03T05:21:01.526Z,63.9
2022-12-03T05:22:01.242Z,63.6
2022-12-03T05:23:01.134Z,64
2022-12-03T05:24:01.141Z,63.7
2022-12-03T05:25:01.149Z,64
2022-12-03T05:26:01.146Z,63.3
2022-12-03T05:27:01.480Z,63.4
2022-12-03T05:28:01.069Z,63.5
2022-12-03T05:29:01.479Z,63.4
2022-12-03T05:30:01.087Z,63.2
2022-12-03T05:31:01.135Z,63.4
2022-12-03T05:32:01.279Z,63.9
2022-12-03T05:33:01.972Z,63.3
2022-12-03T05:34:01.174Z,62.8
2022-12-03T05:35:01.106Z,62.7
2022-12-03T05:36:01.110Z,62.7
2022-12-03T05:37:01.056Z,63
2022-12-03T05:38:01.123Z,63
2022-12-03T05:39:01.126Z,62.6
2022-12-03T05:40:01.524Z,62.7
2022-12-03T05:41:01.251Z,62.8
2022-12-03T05:42:01.154Z,62.6
2022-12-03T05:43:01.065Z,61.8
2022-12-03T05:44:01.194Z,61.7
2022-12-03T05:45:00.823Z,61.8
2022-12-03T05:46:00.533Z,62
2022-12-03T05:47:00.159Z,62.1
2022-12-03T05:48:05.298Z,61.8
2022-12-03T05:49:04.485Z,61.7
2022-12-03T05:50:01.345Z,61.7
2022-12-03T05:51:02.342Z,61.4
2022-12-03T05:52:01.141Z,61.4
2022-12-03T05:53:01.131Z,61.6
2022-12-03T05:54:01.134Z,61.8
2022-12-03T05:55:01.148Z,61.7
2022-12-03T05:56:01.135Z,61.7
2022-12-03T05:57:01.141Z,62
2022-12-03T05:58:01.155Z,62.2
2022-12-03T05:59:01.232Z,62.4
2022-12-03T06:00:01.791Z,62.5
2022-12-03T06:01:02.493Z,62.5
2022-12-03T06:02:01.845Z,62.3
2022-12-03T06:03:01.228Z,62.2
2022-12-03T06:04:05.051Z,61.9
2022-12-03T06:05:01.929Z,61.6
2022-12-03T06:06:01.475Z,61.5
2022-12-03T06:07:01.412Z,61.4
2022-12-03T06:08:01.518Z,61.6
2022-12-03T06:09:07.001Z,61.2
2022-12-03T06:10:01.077Z,60.9
2022-12-03T06:11:01.041Z,61.3
2022-12-03T06:12:01.151Z,61.5
2022-12-03T06:13:01.150Z,61.5
2022-12-03T06:14:10.434Z,61.1
2022-12-03T06:15:01.076Z,61.2
2022-12-03T06:16:02.224Z,61.3
2022-12-03T06:17:04.029Z,61.8
2022-12-03T06:18:01.074Z,61.9
2022-12-03T06:19:12.852Z,61.8
2022-12-03T06:20:01.796Z,61.6
2022-12-03T06:21:01.433Z,61.3
2022-12-03T06:22:01.113Z,61.4
2022-12-03T06:23:01.056Z,61.6
2022-12-03T06:24:15.748Z,61.5
2022-12-03T06:25:06.339Z,61.3
2022-12-03T06:26:01.433Z,61.1
2022-12-03T06:27:01.539Z,60.7
2022-12-03T06:28:01.969Z,60.8
2022-12-03T06:29:01.269Z,61.3
2022-12-03T06:30:02.491Z,62
2022-12-03T06:31:02.269Z,62.3
2022-12-03T06:32:01.185Z,61.9
2022-12-03T06:33:01.062Z,62.1
2022-12-03T06:34:01.177Z,62.4
2022-12-03T06:35:01.211Z,62.3
2022-12-03T06:36:01.186Z,62.3
2022-12-03T06:37:02.002Z,62.4
2022-12-03T06:38:01.086Z,62.5
2022-12-03T06:39:01.192Z,62.3
2022-12-03T06:40:01.241Z,62.9
2022-12-03T06:41:01.112Z,63.2
2022-12-03T06:42:01.127Z,63.3
2022-12-03T06:43:01.050Z,63.6
2022-12-03T06:44:01.046Z,64.4
2022-12-03T06:45:01.424Z,65.3
2022-12-03T06:46:01.320Z,66.1
2022-12-03T06:47:01.211Z,66.7
2022-12-03T06:48:02.249Z,67.2
2022-12-03T06:49:00.910Z,67.9
2022-12-03T06:50:01.087Z,68
2022-12-03T06:51:01.089Z,68.3
2022-12-03T06:52:01.102Z,68
2022-12-03T06:53:01.395Z,67.7
2022-12-03T06:54:01.524Z,68
2022-12-03T06:55:01.096Z,68.5
2022-12-03T06:56:01.138Z,69.2
2022-12-03T06:57:01.808Z,70
2022-12-03T06:58:01.097Z,70.9
2022-12-03T06:59:01.209Z,71
2022-12-03T07:00:01.118Z,70.8
2022-12-03T07:01:01.157Z,70.6
2022-12-03T07:02:01.472Z,71.2
2022-12-03T07:03:01.464Z,71.5
2022-12-03T07:04:04.443Z,72.1
2022-12-03T07:05:01.454Z,72.7
2022-12-03T07:06:01.765Z,73.4
2022-12-03T07:07:01.073Z,73.2
2022-12-03T07:08:01.845Z,73.1
2022-12-03T07:09:00.775Z,72.7
2022-12-03T07:10:00.425Z,73.3
2022-12-03T07:11:00.096Z,73.5
2022-12-03T07:11:59.773Z,73.6
2022-12-03T07:13:02.339Z,74.2
2022-12-03T07:14:04.978Z,74.7
2022-12-03T07:15:02.099Z,74.9
2022-12-03T07:16:01.413Z,75.7
2022-12-03T07:17:00.514Z,76.4
2022-12-03T07:18:00.146Z,76.9
2022-12-03T07:18:59.955Z,76.9
2022-12-03T07:19:59.634Z,76.9
2022-12-03T07:21:01.979Z,76.9
2022-12-03T07:22:01.403Z,77
2022-12-03T07:23:01.088Z,77
2022-12-03T07:24:04.298Z,77.1
2022-12-03T07:25:01.041Z,77.3
2022-12-03T07:26:01.095Z,77.8
2022-12-03T07:27:01.136Z,77.7
2022-12-03T07:28:01.301Z,77.8
2022-12-03T07:29:00.972Z,77.7
2022-12-03T07:30:01.054Z,77.7
2022-12-03T07:31:01.120Z,77.7
2022-12-03T07:32:01.141Z,77.9
2022-12-03T07:33:01.135Z,77.9
2022-12-03T07:34:01.149Z,77.9
2022-12-03T07:35:01.781Z,77.9
2022-12-03T07:36:01.863Z,77.9
2022-12-03T07:37:02.432Z,77.6
2022-12-03T07:38:02.231Z,77.5
2022-12-03T07:39:02.089Z,77.3
2022-12-03T07:40:00.811Z,77.4
2022-12-03T07:41:00.380Z,77.3
2022-12-03T07:42:00.088Z,77.6
2022-12-03T07:42:59.661Z,77.5
2022-12-03T07:44:01.836Z,77.4
2022-12-03T07:45:01.802Z,77.4
2022-12-03T07:46:01.041Z,77.5
2022-12-03T07:47:01.139Z,77.8
2022-12-03T07:48:01.340Z,77.9
2022-12-03T07:49:00.926Z,78
2022-12-03T07:50:02.504Z,78
2022-12-03T07:51:01.052Z,77.9
2022-12-03T07:52:01.064Z,77.8
2022-12-03T07:53:01.056Z,77.8
2022-12-03T07:54:01.065Z,77.8
2022-12-03T07:55:05.300Z,77.9
2022-12-03T07:56:01.109Z,78.1
2022-12-03T07:57:02.253Z,78.2
2022-12-03T07:58:01.477Z,78.6
2022-12-03T07:59:01.128Z,78.6
2022-12-03T08:00:08.221Z,78.6
2022-12-03T08:01:01.165Z,78.7
2022-12-03T08:02:02.697Z,79
2022-12-03T08:03:02.547Z,79.2
2022-12-03T08:04:01.416Z,79.3
2022-12-03T08:05:10.563Z,79.3
2022-12-03T08:06:01.251Z,79.2
2022-12-03T08:07:01.568Z,79.2
2022-12-03T08:08:01.657Z,79.1
2022-12-03T08:09:01.538Z,79.2
2022-12-03T08:10:12.749Z,79.1
2022-12-03T08:11:01.863Z,79.1
2022-12-03T08:12:01.743Z,79.3
2022-12-03T08:13:01.921Z,79.5
2022-12-03T08:14:01.249Z,79.3
2022-12-03T08:15:15.407Z,79.2
2022-12-03T08:16:01.970Z,79.4
2022-12-03T08:17:01.104Z,79.5
2022-12-03T08:18:01.341Z,79.6
2022-12-03T08:19:01.482Z,80
2022-12-03T08:20:17.194Z,80.6
2022-12-03T08:21:01.127Z,81.4
2022-12-03T08:22:01.707Z,81.7
2022-12-03T08:23:00.794Z,81.9
2022-12-03T08:24:00.427Z,81.7
2022-12-03T08:25:00.044Z,81.6
2022-12-03T08:25:59.856Z,81.7
2022-12-03T08:27:01.858Z,81.8
2022-12-03T08:28:01.965Z,81.6
2022-12-03T08:29:01.527Z,81.4
2022-12-03T08:30:02.202Z,81.4
2022-12-03T08:31:01.293Z,81.7
2022-12-03T08:32:02.028Z,82.1
2022-12-03T08:33:02.237Z,82.7
2022-12-03T08:34:01.313Z,82.7
2022-12-03T08:35:01.862Z,82.8
2022-12-03T08:36:01.116Z,82.9
2022-12-03T08:37:01.494Z,83.1
2022-12-03T08:38:01.114Z,82.8
2022-12-03T08:39:01.144Z,82.7
2022-12-03T08:40:01.452Z,82.7
2022-12-03T08:41:01.370Z,82.7
2022-12-03T08:42:02.426Z,82.7
2022-12-03T08:43:01.115Z,82.9
2022-12-03T08:44:01.177Z,83.1
2022-12-03T08:45:01.048Z,83.2
2022-12-03T08:46:01.214Z,83.5
2022-12-03T08:47:08.060Z,83.6
2022-12-03T08:48:01.411Z,83.6
2022-12-03T08:49:01.111Z,83.5
2022-12-03T08:50:03.987Z,83.2
2022-12-03T08:51:01.125Z,83.4
2022-12-03T08:52:01.115Z,83.5
2022-12-03T08:53:01.371Z,83.1
2022-12-03T08:54:02.383Z,83.2
2022-12-03T08:55:01.290Z,83.3
2022-12-03T08:56:02.050Z,83.4
2022-12-03T08:57:01.053Z,83.3
2022-12-03T08:58:01.064Z,83
2022-12-03T08:59:01.164Z,82.8
2022-12-03T09:00:01.154Z,82.9
2022-12-03T09:01:02.027Z,83.2
2022-12-03T09:02:01.120Z,83.5
2022-12-03T09:03:01.103Z,83.8
2022-12-03T09:04:01.165Z,84.7
2022-12-03T09:05:01.105Z,86.1
2022-12-03T09:06:01.438Z,86.7
2022-12-03T09:07:01.245Z,86.6
2022-12-03T09:08:01.261Z,86.6
2022-12-03T09:09:05.259Z,86.5
2022-12-03T09:10:01.114Z,86.4
2022-12-03T09:11:01.125Z,86.3
2022-12-03T09:12:01.250Z,86.2
2022-12-03T09:13:01.130Z,86.2
2022-12-03T09:14:01.608Z,85.9
2022-12-03T09:15:01.152Z,86
2022-12-03T09:16:01.081Z,85.9
2022-12-03T09:17:01.184Z,85.9
2022-12-03T09:18:01.079Z,86
2022-12-03T09:19:01.085Z,85.9
2022-12-03T09:20:01.075Z,85.9
2022-12-03T09:21:01.471Z,86
2022-12-03T09:22:01.489Z,86
2022-12-03T09:23:01.538Z,86
2022-12-03T09:24:01.147Z,86.1
2022-12-03T09:25:01.827Z,86.5
2022-12-03T09:26:00.426Z,86.7
2022-12-03T09:27:00.120Z,86.7
2022-12-03T09:27:59.787Z,87.1
2022-12-03T09:29:01.564Z,87.2
2022-12-03T09:30:01.715Z,87
2022-12-03T09:31:01.192Z,86.8
2022-12-03T09:32:01.897Z,87
2022-12-03T09:33:01.865Z,87.2
2022-12-03T09:34:01.317Z,87.2
2022-12-03T09:35:02.503Z,87.2
2022-12-03T09:36:01.949Z,87.3
2022-12-03T09:37:01.307Z,87.2
2022-12-03T09:38:01.943Z,86.9
2022-12-03T09:39:01.109Z,86.9
2022-12-03T09:40:01.703Z,86.9
2022-12-03T09:41:01.115Z,86.9
2022-12-03T09:42:01.516Z,86.8
2022-12-03T09:43:01.496Z,86.5
2022-12-03T09:44:04.728Z,86
2022-12-03T09:45:02.529Z,86.2
2022-12-03T09:46:03.861Z,86.3
2022-12-03T09:47:01.148Z,86.4
2022-12-03T09:48:01.155Z,86.4
2022-12-03T09:49:01.103Z,86.3
2022-12-03T09:50:01.112Z,86.4
2022-12-03T09:51:06.678Z,86.3
2022-12-03T09:52:02.303Z,86.2
2022-12-03T09:53:01.385Z,86.1
2022-12-03T09:54:01.900Z,85.8
2022-12-03T09:55:01.771Z,85.5
2022-12-03T09:56:09.497Z,85.5
2022-12-03T09:57:01.361Z,85.4
2022-12-03T09:58:01.477Z,85.3
2022-12-03T09:59:01.599Z,85.4
2022-12-03T10:00:01.296Z,85.4
2022-12-03T10:01:12.779Z,85.1
2022-12-03T10:02:01.512Z,85.2
2022-12-03T10:03:01.296Z,85.5
2022-12-03T10:04:02.466Z,85.5
2022-12-03T10:05:02.496Z,85.6
2022-12-03T10:06:15.907Z,84.9
2022-12-03T10:07:02.078Z,84.4
2022-12-03T10:08:01.260Z,83.8
2022-12-03T10:09:00.727Z,83.5
2022-12-03T10:10:01.185Z,83.2
2022-12-03T10:11:00.903Z,83.1
2022-12-03T10:12:01.148Z,82.7
2022-12-03T10:13:01.101Z,82.6
2022-12-03T10:14:01.120Z,82.1
2022-12-03T10:15:01.062Z,81.9
2022-12-03T10:16:01.258Z,81.9
2022-12-03T10:17:01.001Z,82.1
2022-12-03T10:18:00.822Z,82.1
2022-12-03T10:19:00.753Z,82.2
2022-12-03T10:20:00.788Z,82
2022-12-03T10:21:01.430Z,82.1
2022-12-03T10:22:01.152Z,81.4
2022-12-03T10:23:01.067Z,80.7
2022-12-03T10:24:01.064Z,80.3
2022-12-03T10:25:01.221Z,80.4
2022-12-03T10:26:01.118Z,80.4
2022-12-03T10:27:01.093Z,80.4
2022-12-03T10:28:01.106Z,80.4
2022-12-03T10:29:00.795Z,80.4
2022-12-03T10:30:00.606Z,80.5
2022-12-03T10:31:00.425Z,80.4
2022-12-03T10:32:00.180Z,80.6
2022-12-03T10:32:59.804Z,80.8
2022-12-03T10:34:01.425Z,81.1
2022-12-03T10:35:02.052Z,81.1
2022-12-03T10:36:02.050Z,80.9
2022-12-03T10:37:01.537Z,80.9
2022-12-03T10:38:01.156Z,80.7
2022-12-03T10:39:02.000Z,80.5
2022-12-03T10:40:01.079Z,80.6
2022-12-03T10:41:01.046Z,80.7
2022-12-03T10:42:01.053Z,80.7
2022-12-03T10:43:01.089Z,80.8
2022-12-03T10:44:01.089Z,80.7
2022-12-03T10:45:01.217Z,80.8
2022-12-03T10:46:04.243Z,80.8
2022-12-03T10:47:02.433Z,80.9
2022-12-03T10:48:01.806Z,80.9
2022-12-03T10:49:01.238Z,80.9
2022-12-03T10:50:01.152Z,80.7
2022-12-03T10:51:01.254Z,80.5
2022-12-03T10:52:01.165Z,80.4
2022-12-03T10:53:01.142Z,80.5
2022-12-03T10:54:01.045Z,80.5
2022-12-03T10:55:01.056Z,80.5
2022-12-03T10:56:01.201Z,80.5
2022-12-03T10:57:01.125Z,80.5
2022-12-03T10:58:01.082Z,80.5
2022-12-03T10:59:01.092Z,80.4
2022-12-03T11:00:01.539Z,79.8
2022-12-03T11:01:01.223Z,79.7
2022-12-03T11:02:01.360Z,79.5
2022-12-03T11:03:02.135Z,79.5
2022-12-03T11:04:02.650Z,79.2
2022-12-03T11:05:01.276Z,79.1
2022-12-03T11:06:01.471Z,78.5
2022-12-03T11:07:01.245Z,78.3
2022-12-03T11:08:01.182Z,77.9
2022-12-03T11:09:05.427Z,77.7
2022-12-03T11:10:01.127Z,77.4
2022-12-03T11:11:01.245Z,77.5
2022-12-03T11:12:01.170Z,77.5
2022-12-03T11:13:01.231Z,77.6
2022-12-03T11:14:01.447Z,77.7
2022-12-03T11:15:01.467Z,77.6
2022-12-03T11:16:02.281Z,77.5
2022-12-03T11:17:01.099Z,77.2
2022-12-03T11:18:01.044Z,77.5
2022-12-03T11:19:01.133Z,77.6
2022-12-03T11:20:01.111Z,77.6
2022-12-03T11:21:01.218Z,78
2022-12-03T11:22:01.767Z,78
2022-12-03T11:23:01.181Z,78
2022-12-03T11:24:01.148Z,78
2022-12-03T11:25:01.171Z,78
2022-12-03T11:26:01.195Z,78
2022-12-03T11:27:04.752Z,78.1
2022-12-03T11:28:02.492Z,78.1
2022-12-03T11:29:01.371Z,78.3
2022-12-03T11:30:01.050Z,78.1
2022-12-03T11:31:01.216Z,78.2
2022-12-03T11:32:06.325Z,78.1
2022-12-03T11:33:02.000Z,78.1
2022-12-03T11:34:01.394Z,78.1
2022-12-03T11:35:01.116Z,78.2
2022-12-03T11:36:01.105Z,78.3
2022-12-03T11:37:09.873Z,78.4
2022-12-03T11:38:01.175Z,78.5
2022-12-03T11:39:01.510Z,78.8
2022-12-03T11:40:01.528Z,78.6
2022-12-03T11:41:02.587Z,78.6
2022-12-03T11:42:13.022Z,78.7
2022-12-03T11:43:01.060Z,78.8
2022-12-03T11:44:01.055Z,78.7
2022-12-03T11:45:01.075Z,78.7
2022-12-03T11:46:04.211Z,78.8
2022-12-03T11:47:15.619Z,78.6
2022-12-03T11:48:01.473Z,78.9
2022-12-03T11:49:01.100Z,79
2022-12-03T11:50:00.749Z,78.9
2022-12-03T11:51:00.379Z,79
2022-12-03T11:52:00.095Z,79
2022-12-03T11:52:59.986Z,79
2022-12-03T11:53:59.591Z,78.8
2022-12-03T11:55:01.162Z,78.4
2022-12-03T11:56:04.521Z,78.4
2022-12-03T11:57:01.518Z,78.6
2022-12-03T11:58:01.190Z,79
2022-12-03T11:59:01.179Z,79
2022-12-03T12:00:01.787Z,78.8
2022-12-03T12:01:01.885Z,78.7
2022-12-03T12:02:01.758Z,78.7
2022-12-03T12:03:01.371Z,78.8
2022-12-03T12:04:02.251Z,78.9
2022-12-03T12:05:02.096Z,78.8
2022-12-03T12:06:02.080Z,78.9
2022-12-03T12:07:01.108Z,78.7
2022-12-03T12:08:01.364Z,78.3
2022-12-03T12:09:01.108Z,78.2
2022-12-03T12:10:00.603Z,78.3
2022-12-03T12:11:00.319Z,78.3
2022-12-03T12:12:00.006Z,77.9
2022-12-03T12:12:59.825Z,77.9
2022-12-03T12:14:01.680Z,77.5
2022-12-03T12:15:01.686Z,77.6
2022-12-03T12:16:01.393Z,77.4
2022-12-03T12:17:01.066Z,77.5
2022-12-03T12:18:01.068Z,77.4
2022-12-03T12:19:01.073Z,77.2
2022-12-03T12:20:01.073Z,76.2
2022-12-03T12:21:01.066Z,76.1
2022-12-03T12:22:01.114Z,76.2
2022-12-03T12:23:01.918Z,76.4
2022-12-03T12:24:01.101Z,76.5
2022-12-03T12:25:01.242Z,76.4
2022-12-03T12:26:01.161Z,76.7
2022-12-03T12:27:01.276Z,77
2022-12-03T12:28:01.146Z,77.1
2022-12-03T12:29:01.139Z,77
2022-12-03T12:30:00.825Z,77.1
2022-12-03T12:31:01.248Z,77
2022-12-03T12:32:01.207Z,77.1
2022-12-03T12:33:01.266Z,77.3
2022-12-03T12:34:01.136Z,77.5
2022-12-03T12:35:01.245Z,77.7
2022-12-03T12:36:01.101Z,77.6
2022-12-03T12:37:01.082Z,77.7
2022-12-03T12:38:01.085Z,77.8
2022-12-03T12:39:01.093Z,78
2022-12-03T12:40:01.275Z,78
2022-12-03T12:41:01.367Z,78.1
2022-12-03T12:42:02.060Z,77.9
2022-12-03T12:43:08.263Z,77.8
2022-12-03T12:44:01.171Z,78
2022-12-03T12:45:01.156Z,77.9
2022-12-03T12:46:18.683Z,77.9
2022-12-03T12:47:00.778Z,77.9
2022-12-03T12:48:00.635Z,78
2022-12-03T12:49:00.438Z,78
2022-12-03T12:50:00.103Z,78
2022-12-03T12:50:59.827Z,77.8
2022-12-03T12:52:02.283Z,77.8
2022-12-03T12:53:02.600Z,77.9
2022-12-03T12:54:02.193Z,77.8
2022-12-03T12:55:04.954Z,77.9
2022-12-03T12:56:01.102Z,78
2022-12-03T12:57:01.324Z,78.1
2022-12-03T12:58:01.167Z,78.2
2022-12-03T12:59:00.966Z,78.2
2022-12-03T13:00:00.830Z,78.2
2022-12-03T13:01:01.332Z,78.2
2022-12-03T13:02:08.603Z,78.3
2022-12-03T13:03:08.351Z,78.5
2022-12-03T13:04:01.153Z,78.5
2022-12-03T13:05:01.167Z,78.6
2022-12-03T13:06:01.057Z,78.8
2022-12-03T13:07:01.059Z,78.9
2022-12-03T13:08:10.136Z,78.8
2022-12-03T13:09:01.186Z,78.9
2022-12-03T13:10:01.103Z,79.2
2022-12-03T13:11:01.075Z,79.6
2022-12-03T13:12:01.079Z,79.8
2022-12-03T13:13:05.748Z,80.1
2022-12-03T13:14:01.517Z,80
2022-12-03T13:15:01.159Z,79.9
2022-12-03T13:16:01.204Z,79.9
2022-12-03T13:17:01.136Z,79.9
2022-12-03T13:18:09.202Z,79.9
2022-12-03T13:19:01.149Z,80.2
2022-12-03T13:20:07.672Z,80.6
2022-12-03T13:21:01.050Z,80.6
2022-12-03T13:22:01.059Z,80.6
2022-12-03T13:23:11.501Z,80.6
2022-12-03T13:24:01.063Z,80.8
2022-12-03T13:25:01.076Z,80.8